createdAt,value
2018-01-03T00:00:44.147Z,0.73
2018-01-03T00:03:11.671Z,2.73
2018-01-03T00:05:39.202Z,0.50
2018-01-03T00:08:24.506Z,1.43
2018-01-03T00:10:52.032Z,0.93
2018-01-03T00:13:19.546Z,1.03
2018-01-03T00:15:47.052Z,3.77
2018-01-03T00:18:14.565Z,0.73
2018-01-03T00:20:42.105Z,0.77
2018-01-03T00:23:09.611Z,3.87
2018-01-03T00:25:37.149Z,0.70
2018-01-03T00:28:04.687Z,1.47
2018-01-03T00:30:32.196Z,2.07
2018-01-03T00:32:59.713Z,1.20
2018-01-03T00:35:27.231Z,0.80
2018-01-03T00:37:54.751Z,0.63
2018-01-03T00:40:22.258Z,1.33
2018-01-03T00:42:49.780Z,1.37
2018-01-03T00:45:17.278Z,0.43
2018-01-03T00:47:44.802Z,0.97
2018-01-03T00:50:12.336Z,0.43
2018-01-03T00:52:39.842Z,1.03
2018-01-03T00:55:07.348Z,0.57
2018-01-03T00:57:34.871Z,1.47
2018-01-03T01:00:02.391Z,1.37
2018-01-03T01:02:29.893Z,1.23
2018-01-03T01:04:57.423Z,0.60
2018-01-03T01:07:24.922Z,0.80
2018-01-03T01:09:52.441Z,0.97
2018-01-03T01:12:19.963Z,1.70
2018-01-03T01:14:47.496Z,1.13
2018-01-03T01:17:15.004Z,0.50
2018-01-03T01:19:42.528Z,0.70
2018-01-03T01:22:10.072Z,1.17
2018-01-03T01:24:37.588Z,0.70
2018-01-03T01:27:05.121Z,2.20
2018-01-03T01:29:32.633Z,0.73
2018-01-03T01:32:00.152Z,0.43
2018-01-03T01:34:27.696Z,0.83
2018-01-03T01:36:55.197Z,1.23
2018-01-03T01:39:22.731Z,1.20
2018-01-03T01:41:50.251Z,0.40
2018-01-03T01:44:17.765Z,0.67
2018-01-03T01:46:45.303Z,0.50
2018-01-03T01:49:12.827Z,1.67
2018-01-03T01:51:40.347Z,0.50
2018-01-03T01:54:07.893Z,0.57
2018-01-03T01:56:35.444Z,1.27
2018-01-03T01:59:02.937Z,0.80
2018-01-03T02:01:30.446Z,3.70
2018-01-03T02:03:57.956Z,0.97
2018-01-03T02:06:25.476Z,0.40
2018-01-03T02:08:53.022Z,0.70
2018-01-03T02:11:20.550Z,0.63
2018-01-03T02:13:48.077Z,0.70
2018-01-03T02:16:15.983Z,0.73
2018-01-03T02:18:43.492Z,2.00
2018-01-03T02:21:10.997Z,2.43
2018-01-03T02:23:38.518Z,0.43
2018-01-03T02:26:06.078Z,0.37
2018-01-03T02:28:33.599Z,0.40
2018-01-03T02:31:01.101Z,0.30
2018-01-03T02:33:28.614Z,0.40
2018-01-03T02:35:56.149Z,1.13
2018-01-03T02:38:33.552Z,1.13
2018-01-03T02:41:01.057Z,0.50
2018-01-03T02:43:28.583Z,0.63
2018-01-03T02:45:56.096Z,0.40
2018-01-03T02:48:23.609Z,2.50
2018-01-03T02:50:51.101Z,1.50
2018-01-03T02:53:19.512Z,0.43
2018-01-03T02:55:47.017Z,0.40
2018-01-03T02:58:14.528Z,0.40
2018-01-03T03:00:42.057Z,0.33
2018-01-03T03:03:09.589Z,0.40
2018-01-03T03:05:37.102Z,3.13
2018-01-03T03:08:04.660Z,0.30
2018-01-03T03:10:32.159Z,0.40
2018-01-03T03:12:59.661Z,0.57
2018-01-03T03:15:27.178Z,1.87
2018-01-03T03:17:54.692Z,0.30
2018-01-03T03:20:22.197Z,0.80
2018-01-03T03:22:49.699Z,0.30
2018-01-03T03:25:17.207Z,0.30
2018-01-03T03:27:44.757Z,0.50
2018-01-03T03:30:12.278Z,0.30
2018-01-03T03:32:39.803Z,0.30
2018-01-03T03:35:07.318Z,0.40
2018-01-03T03:37:34.826Z,0.30
2018-01-03T03:40:02.364Z,0.70
2018-01-03T03:42:29.887Z,0.40
2018-01-03T03:44:57.387Z,0.30
2018-01-03T03:47:24.966Z,0.40
2018-01-03T03:49:52.442Z,1.53
2018-01-03T03:52:20.006Z,0.30
2018-01-03T03:54:47.486Z,0.30
2018-01-03T03:57:14.999Z,0.30
2018-01-03T03:59:42.513Z,0.30
2018-01-03T04:02:10.019Z,0.30
2018-01-03T04:04:37.513Z,0.30
2018-01-03T04:07:05.027Z,0.30
2018-01-03T04:09:32.546Z,0.50
2018-01-03T04:12:00.059Z,0.67
2018-01-03T04:14:27.566Z,1.23
2018-01-03T04:16:55.077Z,1.07
2018-01-03T04:19:22.596Z,0.60
2018-01-03T04:21:50.126Z,6.23
2018-01-03T04:24:17.639Z,0.93
2018-01-03T04:26:45.157Z,1.27
2018-01-03T04:29:12.678Z,0.43
2018-01-03T04:31:40.194Z,1.10
2018-01-03T04:34:07.718Z,1.03
2018-01-03T04:36:35.239Z,1.20
2018-01-03T04:39:03.532Z,1.70
2018-01-03T04:41:31.051Z,1.93
2018-01-03T04:43:58.553Z,2.03
2018-01-03T04:46:26.053Z,1.63
2018-01-03T04:48:53.563Z,1.03
2018-01-03T04:51:21.090Z,0.83
2018-01-03T04:53:48.627Z,0.50
2018-01-03T04:56:16.143Z,2.20
2018-01-03T04:58:43.648Z,2.50
2018-01-03T05:01:11.182Z,0.40
2018-01-03T05:03:38.719Z,0.30
2018-01-03T05:06:06.276Z,0.47
2018-01-03T05:08:33.787Z,0.40
2018-01-03T05:11:01.647Z,0.40
2018-01-03T05:13:29.284Z,0.60
2018-01-03T05:15:56.802Z,0.30
2018-01-03T05:18:24.351Z,1.23
2018-01-03T05:20:51.872Z,0.30
2018-01-03T05:23:19.407Z,0.37
2018-01-03T05:25:46.953Z,0.30
2018-01-03T05:28:14.510Z,1.10
2018-01-03T05:30:42.032Z,0.50
2018-01-03T05:33:09.562Z,0.40
2018-01-03T05:35:37.077Z,0.70
2018-01-03T05:38:04.574Z,0.30
2018-01-03T05:40:32.088Z,0.40
2018-01-03T05:42:59.601Z,9.63
2018-01-03T05:45:27.129Z,0.30
2018-01-03T05:47:54.669Z,0.40
2018-01-03T05:50:22.304Z,1.23
2018-01-03T05:52:49.797Z,0.77
2018-01-03T05:55:17.357Z,0.40
2018-01-03T05:57:44.898Z,1.03
2018-01-03T06:00:12.472Z,1.47
2018-01-03T06:02:39.989Z,2.10
2018-01-03T06:05:07.524Z,1.37
2018-01-03T06:07:35.103Z,0.30
2018-01-03T06:10:02.633Z,0.50
2018-01-03T06:12:30.172Z,1.03
2018-01-03T06:14:57.722Z,0.93
2018-01-03T06:17:25.247Z,0.40
2018-01-03T06:19:52.802Z,0.70
2018-01-03T06:22:20.347Z,0.50
2018-01-03T06:24:47.868Z,0.30
2018-01-03T06:27:15.419Z,0.30
2018-01-03T06:29:42.920Z,0.30
2018-01-03T06:32:10.447Z,0.40
2018-01-03T06:34:37.968Z,1.10
2018-01-03T06:37:05.516Z,0.33
2018-01-03T06:39:33.058Z,0.30
2018-01-03T06:42:00.559Z,0.53
2018-01-03T06:44:28.073Z,1.37
2018-01-03T06:46:55.604Z,0.50
2018-01-03T06:49:23.122Z,0.30
2018-01-03T06:51:50.639Z,0.33
2018-01-03T06:54:18.177Z,0.40
2018-01-03T06:56:45.697Z,0.30
2018-01-03T06:59:13.218Z,0.47
2018-01-03T07:01:40.738Z,0.40
2018-01-03T07:04:08.244Z,0.30
2018-01-03T07:06:35.778Z,0.70
2018-01-03T07:09:03.298Z,4.20
2018-01-03T07:11:30.824Z,0.60
2018-01-03T07:13:58.347Z,0.40
2018-01-03T07:16:25.889Z,0.50
2018-01-03T07:18:53.417Z,0.40
2018-01-03T07:21:20.939Z,2.20
2018-01-03T07:23:48.475Z,0.90
2018-01-03T07:26:16.012Z,0.60
2018-01-03T07:28:43.588Z,0.37
2018-01-03T07:31:11.153Z,0.40
2018-01-03T07:33:38.672Z,0.40
2018-01-03T07:36:06.223Z,0.53
2018-01-03T07:38:33.740Z,0.40
2018-01-03T07:41:01.286Z,0.80
2018-01-03T07:43:28.815Z,1.90
2018-01-03T07:45:56.348Z,1.00
2018-01-03T07:48:23.867Z,3.93
2018-01-03T07:50:51.419Z,2.93
2018-01-03T07:53:19.083Z,9.30
2018-01-03T07:55:46.659Z,2.13
2018-01-03T07:58:14.197Z,2.00
2018-01-03T08:00:41.749Z,1.80
2018-01-03T08:03:09.284Z,0.30
2018-01-03T08:05:36.825Z,0.30
2018-01-03T08:08:04.377Z,1.63
2018-01-03T08:10:31.929Z,0.73
2018-01-03T08:12:59.500Z,20.20
2018-01-03T08:15:27.054Z,0.53
2018-01-03T08:17:54.629Z,0.40
2018-01-03T08:20:22.157Z,1.17
2018-01-03T08:22:49.730Z,5.20
2018-01-03T08:25:17.235Z,0.40
2018-01-03T08:27:44.796Z,0.40
2018-01-03T08:30:12.329Z,3.53
2018-01-03T08:32:39.872Z,0.30
2018-01-03T08:35:07.444Z,3.30
2018-01-03T08:37:35.004Z,3.90
2018-01-03T08:40:02.551Z,2.30
2018-01-03T08:42:30.108Z,2.10
2018-01-03T08:44:57.635Z,2.13
2018-01-03T08:47:25.179Z,2.00
2018-01-03T08:49:52.724Z,3.20
2018-01-03T08:52:20.260Z,0.93
2018-01-03T08:54:47.824Z,1.27
2018-01-03T08:57:15.389Z,2.70
2018-01-03T08:59:42.945Z,2.30
2018-01-03T09:02:10.489Z,2.30
2018-01-03T09:04:38.039Z,1.63
2018-01-03T09:07:05.581Z,2.80
2018-01-03T09:09:33.168Z,1.60
2018-01-03T09:12:00.725Z,1.13
2018-01-03T09:14:28.275Z,1.70
2018-01-03T09:16:55.815Z,2.10
2018-01-03T09:19:23.351Z,2.53
2018-01-03T09:21:50.891Z,4.73
2018-01-03T09:24:18.438Z,1.47
2018-01-03T09:26:45.958Z,1.87
2018-01-03T09:29:13.498Z,1.40
2018-01-03T09:31:41.092Z,1.93
2018-01-03T09:34:08.620Z,1.43
2018-01-03T09:36:36.265Z,2.43
2018-01-03T09:39:03.838Z,4.20
2018-01-03T09:41:31.386Z,1.07
2018-01-03T09:43:59.044Z,0.50
2018-01-03T09:46:26.610Z,0.47
2018-01-03T09:48:54.134Z,5.73
2018-01-03T09:51:21.683Z,1.97
2018-01-03T09:53:49.211Z,1.57
2018-01-03T09:56:17.276Z,1.07
2018-01-03T09:58:44.808Z,1.90
2018-01-03T10:01:12.355Z,2.67
2018-01-03T10:03:39.918Z,0.50
2018-01-03T10:06:07.456Z,1.13
2018-01-03T10:08:35.052Z,0.60
2018-01-03T10:11:02.610Z,1.60
2018-01-03T10:13:30.195Z,0.43
2018-01-03T10:15:57.746Z,0.57
2018-01-03T10:18:25.293Z,0.30
2018-01-03T10:20:52.871Z,0.40
2018-01-03T10:23:20.435Z,1.43
2018-01-03T10:25:47.976Z,0.30
2018-01-03T10:28:15.557Z,0.60
2018-01-03T10:30:43.186Z,0.30
2018-01-03T10:33:10.736Z,0.30
2018-01-03T10:42:24.135Z,3.17
2018-01-03T10:44:51.791Z,0.37
2018-01-03T10:47:19.336Z,0.30
2018-01-03T10:49:46.879Z,0.77
2018-01-03T10:52:14.459Z,0.53
2018-01-03T10:54:42.005Z,1.47
2018-01-03T10:57:09.544Z,0.70
2018-01-03T10:59:37.262Z,0.30
2018-01-03T11:02:04.804Z,1.23
2018-01-03T11:04:32.354Z,0.30
2018-01-03T11:06:59.889Z,0.40
2018-01-03T11:09:27.444Z,0.90
2018-01-03T11:11:54.990Z,0.90
2018-01-03T11:14:22.555Z,0.77
2018-01-03T11:16:50.095Z,2.70
2018-01-03T11:19:17.645Z,2.00
2018-01-03T11:21:45.180Z,1.27
2018-01-03T11:24:12.736Z,3.53
2018-01-03T11:26:40.290Z,0.80
2018-01-03T11:29:07.837Z,0.60
2018-01-03T11:31:35.393Z,3.73
2018-01-03T11:34:02.934Z,0.80
2018-01-03T11:36:30.511Z,8.03
2018-01-03T11:38:58.044Z,7.33
2018-01-03T11:41:25.602Z,2.60
2018-01-03T11:43:53.169Z,3.80
2018-01-03T11:46:20.704Z,2.97
2018-01-03T11:48:48.261Z,3.53
2018-01-03T11:51:16.014Z,3.27
2018-01-03T11:53:43.554Z,2.10
2018-01-03T11:56:11.095Z,4.10
2018-01-03T11:58:38.639Z,1.37
2018-01-03T12:01:06.173Z,4.57
2018-01-03T12:03:33.736Z,3.67
2018-01-03T12:06:01.404Z,3.67
2018-01-03T12:08:28.950Z,2.50
2018-01-03T12:10:56.491Z,6.20
2018-01-03T12:13:24.036Z,2.33
2018-01-03T12:15:51.573Z,9.83
2018-01-03T12:18:19.109Z,5.37
2018-01-03T12:20:46.644Z,4.47
2018-01-03T12:23:14.171Z,7.03
2018-01-03T12:25:41.713Z,5.97
2018-01-03T12:28:09.259Z,2.53
2018-01-03T12:30:36.804Z,4.90
2018-01-03T12:33:04.355Z,1.40
2018-01-03T12:35:31.884Z,3.83
2018-01-03T12:37:59.427Z,5.70
2018-01-03T12:40:26.971Z,1.43
2018-01-03T12:42:54.545Z,7.83
2018-01-03T12:45:22.092Z,11.37
2018-01-03T12:47:49.711Z,10.30
2018-01-03T12:50:17.264Z,4.30
2018-01-03T12:52:44.810Z,5.57
2018-01-03T12:55:12.355Z,1.53
2018-01-03T12:57:39.900Z,5.03
2018-01-03T13:00:07.474Z,33.57
2018-01-03T13:02:35.032Z,6.60
2018-01-03T13:05:02.599Z,2.83
2018-01-03T13:07:30.163Z,2.83
2018-01-03T13:09:57.724Z,5.80
2018-01-03T13:12:25.269Z,10.70
2018-01-03T13:14:52.819Z,6.27
2018-01-03T13:17:20.376Z,7.40
2018-01-03T13:19:47.920Z,2.50
2018-01-03T13:22:15.449Z,5.97
2018-01-03T13:24:42.969Z,5.03
2018-01-03T13:27:10.495Z,5.53
2018-01-03T13:29:38.036Z,8.13
2018-01-03T13:32:05.587Z,4.93
2018-01-03T13:34:33.131Z,6.37
2018-01-03T13:37:00.675Z,9.37
2018-01-03T13:39:28.214Z,9.57
2018-01-03T13:41:55.745Z,8.77
2018-01-03T13:44:23.274Z,7.23
2018-01-03T13:46:50.824Z,7.80
2018-01-03T13:49:18.400Z,6.80
2018-01-03T13:51:45.929Z,5.27
2018-01-03T13:54:13.487Z,3.97
2018-01-03T13:56:41.054Z,5.87
2018-01-03T13:59:08.615Z,6.80
2018-01-03T14:01:36.165Z,9.50
2018-01-03T14:04:03.702Z,8.57
2018-01-03T14:06:31.225Z,4.93
2018-01-03T14:08:58.780Z,8.00
2018-01-03T14:11:26.330Z,6.17
2018-01-03T14:13:53.872Z,6.10
2018-01-03T14:16:21.400Z,5.60
2018-01-03T14:18:48.941Z,7.67
2018-01-03T14:21:16.484Z,4.40
2018-01-03T14:23:44.041Z,8.33
2018-01-03T14:26:11.611Z,8.40
2018-01-03T14:28:39.155Z,7.40
2018-01-03T14:31:06.701Z,7.53
2018-01-03T14:33:34.243Z,13.77
2018-01-03T14:36:01.822Z,7.27
2018-01-03T14:38:29.410Z,6.43
2018-01-03T14:40:56.921Z,12.53
2018-01-03T14:43:24.459Z,6.80
2018-01-03T14:45:51.996Z,15.03
2018-01-03T14:48:19.540Z,4.40
2018-01-03T14:50:47.290Z,7.17
2018-01-03T14:53:14.827Z,8.07
2018-01-03T14:55:42.360Z,8.23
2018-01-03T14:58:09.930Z,6.27
2018-01-03T15:00:37.474Z,4.27
2018-01-03T15:03:05.034Z,6.60
2018-01-03T15:05:32.579Z,7.77
2018-01-03T15:08:00.109Z,6.10
2018-01-03T15:10:27.646Z,8.67
2018-01-03T15:12:55.185Z,3.27
2018-01-03T15:15:22.746Z,6.23
2018-01-03T15:17:50.300Z,8.47
2018-01-03T15:20:17.840Z,6.57
2018-01-03T15:22:45.384Z,7.37
2018-01-03T15:25:12.916Z,15.10
2018-01-03T15:27:40.465Z,9.70
2018-01-03T15:30:08.051Z,7.83
2018-01-03T15:32:35.612Z,5.60
2018-01-03T15:35:03.177Z,12.93
2018-01-03T15:37:30.708Z,13.30
2018-01-03T15:39:58.257Z,7.70
2018-01-03T15:42:25.778Z,7.47
2018-01-03T15:44:53.318Z,6.87
2018-01-03T15:47:20.875Z,7.53
2018-01-03T15:49:48.421Z,10.37
2018-01-03T15:52:15.970Z,6.70
2018-01-03T15:54:43.507Z,4.40
2018-01-03T15:57:11.036Z,6.93
2018-01-03T15:59:38.596Z,3.60
2018-01-03T16:02:06.196Z,12.77
2018-01-03T16:04:33.722Z,6.37
2018-01-03T16:07:01.267Z,11.00
2018-01-03T16:09:28.865Z,6.73
2018-01-03T16:11:56.393Z,8.47
2018-01-03T16:14:23.952Z,6.77
2018-01-03T16:16:51.472Z,11.13
2018-01-03T16:19:19.006Z,5.60
2018-01-03T16:21:46.566Z,13.20
2018-01-03T16:24:14.115Z,12.77
2018-01-03T16:26:41.652Z,11.57
2018-01-03T16:29:09.227Z,8.23
2018-01-03T16:31:36.774Z,11.07
2018-01-03T16:34:04.345Z,13.27
2018-01-03T16:36:31.900Z,8.93
2018-01-03T16:38:59.525Z,17.60
2018-01-03T16:41:27.090Z,13.13
2018-01-03T16:43:54.654Z,11.00
2018-01-03T16:46:22.182Z,10.53
2018-01-03T16:48:49.748Z,9.80
2018-01-03T16:51:17.762Z,8.70
2018-01-03T16:53:45.332Z,6.53
2018-01-03T16:56:12.898Z,9.30
2018-01-03T16:58:40.472Z,7.97
2018-01-03T17:01:08.036Z,12.80
2018-01-03T17:03:35.582Z,15.17
2018-01-03T17:06:03.128Z,10.87
2018-01-03T17:08:30.711Z,19.47
2018-01-03T17:10:58.277Z,10.53
2018-01-03T17:13:25.824Z,9.30
2018-01-03T17:15:53.371Z,16.30
2018-01-03T17:18:20.938Z,10.23
2018-01-03T17:20:48.487Z,8.33
2018-01-03T17:23:16.036Z,9.33
2018-01-03T17:25:43.573Z,9.20
2018-01-03T17:28:11.124Z,8.40
2018-01-03T17:30:38.682Z,13.80
2018-01-03T17:33:06.235Z,7.47
2018-01-03T17:35:33.765Z,12.20
2018-01-03T17:38:01.322Z,7.50
2018-01-03T17:40:28.866Z,7.37
2018-01-03T17:42:56.438Z,10.73
2018-01-03T17:45:23.998Z,5.80
2018-01-03T17:47:51.546Z,6.23
2018-01-03T17:50:19.123Z,6.73
2018-01-03T17:52:46.692Z,9.40
2018-01-03T17:55:14.248Z,5.77
2018-01-03T17:57:41.789Z,12.70
2018-01-03T18:00:09.338Z,16.67
2018-01-03T18:02:36.875Z,12.87
2018-01-03T18:05:04.487Z,10.23
2018-01-03T18:07:32.107Z,14.83
2018-01-03T18:09:59.776Z,7.00
2018-01-03T18:12:27.332Z,10.50
2018-01-03T18:14:54.913Z,19.23
2018-01-03T18:17:22.482Z,10.20
2018-01-03T18:19:50.033Z,11.93
2018-01-03T18:22:17.577Z,8.00
2018-01-03T18:24:45.138Z,9.23
2018-01-03T18:27:12.705Z,7.33
2018-01-03T18:29:40.246Z,22.07
2018-01-03T18:32:07.774Z,7.90
2018-01-03T18:34:35.322Z,8.90
2018-01-03T18:37:02.964Z,10.93
2018-01-03T18:39:30.532Z,10.63
2018-01-03T18:41:58.119Z,10.93
2018-01-03T18:44:25.702Z,19.33
2018-01-03T18:46:53.253Z,10.10
2018-01-03T18:49:20.817Z,13.23
2018-01-03T18:51:48.477Z,11.10
2018-01-03T18:54:16.192Z,12.97
2018-01-03T18:56:43.747Z,10.80
2018-01-03T18:59:11.308Z,9.60
2018-01-03T19:01:38.922Z,12.40
2018-01-03T19:04:06.604Z,11.13
2018-01-03T19:06:34.193Z,12.70
2018-01-03T19:09:01.756Z,9.80
2018-01-03T19:11:29.297Z,11.73
2018-01-03T19:13:56.857Z,7.70
2018-01-03T19:16:24.426Z,6.80
2018-01-03T19:18:51.985Z,12.57
2018-01-03T19:21:19.542Z,9.17
2018-01-03T19:23:47.103Z,11.97
2018-01-03T19:26:14.687Z,9.47
2018-01-03T19:28:42.231Z,14.00
2018-01-03T19:31:09.794Z,8.70
2018-01-03T19:33:37.355Z,14.37
2018-01-03T19:36:04.922Z,14.20
2018-01-03T19:38:32.697Z,8.20
2018-01-03T19:41:00.393Z,15.43
2018-01-03T19:43:28.051Z,12.30
2018-01-03T19:45:55.595Z,15.47
2018-01-03T19:48:23.177Z,9.27
2018-01-03T19:50:50.976Z,9.13
2018-01-03T19:53:18.566Z,16.20
2018-01-03T19:55:46.201Z,6.10
2018-01-03T19:58:13.858Z,9.03
2018-01-03T20:00:41.471Z,7.00
2018-01-03T20:03:09.099Z,13.73
2018-01-03T20:05:36.752Z,7.60
2018-01-03T20:08:04.330Z,8.17
2018-01-03T20:10:31.872Z,10.00
2018-01-03T20:12:59.597Z,15.07
2018-01-03T20:15:27.177Z,9.63
2018-01-03T20:17:54.781Z,11.67
2018-01-03T20:20:22.469Z,11.80
2018-01-03T20:22:50.167Z,11.67
2018-01-03T20:25:17.729Z,5.53
2018-01-03T20:27:45.271Z,9.13
2018-01-03T20:30:12.836Z,8.23
2018-01-03T20:32:40.387Z,10.73
2018-01-03T20:35:07.973Z,8.17
2018-01-03T20:37:35.672Z,13.73
2018-01-03T20:40:03.366Z,6.97
2018-01-03T20:42:31.106Z,12.23
2018-01-03T20:44:58.795Z,18.40
2018-01-03T20:47:26.512Z,32.20
2018-01-03T20:49:54.161Z,9.40
2018-01-03T20:52:21.737Z,14.87
2018-01-03T20:54:49.301Z,13.13
2018-01-03T20:57:16.872Z,9.37
2018-01-03T20:59:44.400Z,12.00
2018-01-03T21:02:12.122Z,10.53
2018-01-03T21:04:39.831Z,11.00
2018-01-03T21:07:07.427Z,10.10
2018-01-03T21:09:35.020Z,7.60
2018-01-03T21:12:02.617Z,7.53
2018-01-03T21:14:30.246Z,15.93
2018-01-03T21:16:57.851Z,12.37
2018-01-03T21:19:25.435Z,7.47
2018-01-03T21:21:53.036Z,9.30
2018-01-03T21:24:20.612Z,9.30
2018-01-03T21:26:48.997Z,13.47
2018-01-03T21:29:16.671Z,10.10
2018-01-03T21:31:44.236Z,14.00
2018-01-03T21:34:11.803Z,20.10
2018-01-03T21:36:39.373Z,12.43
2018-01-03T21:39:06.915Z,8.07
2018-01-03T21:41:34.457Z,5.57
2018-01-03T21:44:02.022Z,17.53
2018-01-03T21:46:29.560Z,8.90
2018-01-03T21:48:57.130Z,13.03
2018-01-03T21:51:24.683Z,12.40
2018-01-03T21:53:52.250Z,12.53
2018-01-03T21:56:19.829Z,6.13
2018-01-03T21:58:47.379Z,11.27
2018-01-03T22:01:14.953Z,15.10
2018-01-03T22:03:42.510Z,11.63
2018-01-03T22:06:10.065Z,11.03
2018-01-03T22:08:37.625Z,10.17
2018-01-03T22:11:05.176Z,9.80
2018-01-03T22:13:32.735Z,12.23
2018-01-03T22:16:00.271Z,10.27
2018-01-03T22:18:27.816Z,10.53
2018-01-03T22:20:55.372Z,9.73
2018-01-03T22:23:22.930Z,9.27
2018-01-03T22:25:50.466Z,13.93
2018-01-03T22:28:18.041Z,4.53
2018-01-03T22:30:45.581Z,9.87
2018-01-03T22:33:13.987Z,9.57
2018-01-03T22:35:42.173Z,14.17
2018-01-03T22:38:09.718Z,14.93
2018-01-03T22:40:37.256Z,8.37
2018-01-03T22:43:04.935Z,14.30
2018-01-03T22:45:32.486Z,10.70
2018-01-03T22:48:00.033Z,11.87
2018-01-03T22:50:27.602Z,11.07
2018-01-03T22:52:55.164Z,7.37
2018-01-03T22:55:22.711Z,3.67
2018-01-03T22:57:50.258Z,6.40
2018-01-03T23:00:17.818Z,11.70
2018-01-03T23:02:45.381Z,9.23
2018-01-03T23:05:12.924Z,6.83
2018-01-03T23:07:40.468Z,7.17
2018-01-03T23:10:08.026Z,10.23
2018-01-03T23:12:35.572Z,8.27
2018-01-03T23:15:03.105Z,9.60
2018-01-03T23:17:30.653Z,5.93
2018-01-03T23:19:58.198Z,8.83
2018-01-03T23:22:25.762Z,10.73
2018-01-03T23:24:53.311Z,6.77
2018-01-03T23:27:20.848Z,6.13
2018-01-03T23:29:48.388Z,9.77
2018-01-03T23:32:15.913Z,6.57
2018-01-03T23:34:43.466Z,12.90
2018-01-03T23:37:10.997Z,10.30
2018-01-03T23:39:38.544Z,13.53
2018-01-03T23:42:06.869Z,4.83
2018-01-03T23:44:34.418Z,15.67
2018-01-03T23:47:01.956Z,5.03
2018-01-03T23:49:29.538Z,8.33
2018-01-03T23:51:57.098Z,8.50
2018-01-03T23:54:24.643Z,10.57
2018-01-03T23:56:52.228Z,7.30
2018-01-03T23:59:19.776Z,8.47
